createdAt,value
2023-11-23T00:06:11.384Z,3.75
2023-11-23T00:16:13.324Z,3.75
2023-11-23T00:26:15.316Z,3.72
2023-11-23T00:36:17.348Z,3.60
2023-11-23T00:46:19.323Z,3.60
2023-11-23T00:56:21.062Z,4.38
2023-11-23T01:06:23.287Z,4.03
2023-11-23T01:16:26.308Z,4.00
2023-11-23T01:26:28.052Z,4.30
2023-11-23T01:36:29.756Z,4.03
2023-11-23T01:46:32.022Z,4.03
2023-11-23T01:56:33.879Z,3.95
2023-11-23T02:06:35.615Z,6.53
2023-11-23T02:16:38.980Z,6.60
2023-11-23T02:26:41.011Z,8.02
2023-11-23T02:36:42.747Z,7.57
2023-11-23T02:46:44.707Z,7.18
2023-11-23T02:56:46.455Z,7.95
2023-11-23T03:06:48.624Z,8.60
2023-11-23T03:16:51.768Z,8.60
2023-11-23T03:26:53.958Z,8.27
2023-11-23T03:36:56.635Z,7.32
2023-11-23T03:46:58.327Z,6.95
2023-11-23T03:57:00.125Z,6.63
2023-11-23T04:07:02.453Z,6.50
2023-11-23T04:17:04.199Z,6.38
2023-11-23T04:27:06.159Z,6.72
2023-11-23T04:37:07.968Z,5.97
2023-11-23T04:47:09.739Z,6.30
2023-11-23T04:57:11.536Z,5.47
2023-11-23T05:07:13.425Z,5.95
2023-11-23T05:17:15.122Z,6.05
2023-11-23T05:27:17.456Z,6.57
2023-11-23T05:37:19.229Z,6.28
2023-11-23T05:47:20.951Z,6.28
2023-11-23T05:57:24.922Z,7.22
2023-11-23T06:07:26.833Z,7.32
2023-11-23T06:17:28.697Z,7.05
2023-11-23T06:27:33.476Z,7.82
2023-11-23T06:37:37.277Z,7.03
2023-11-23T06:47:41.402Z,7.45
2023-11-23T06:57:47.959Z,7.25
2023-11-23T07:07:50.039Z,7.18
2023-11-23T07:17:51.971Z,7.05
2023-11-23T07:27:53.901Z,7.40
2023-11-23T07:37:55.726Z,7.40
2023-11-23T07:47:57.744Z,6.57
2023-11-23T07:57:59.654Z,7.00
2023-11-23T08:08:01.760Z,6.80
2023-11-23T08:18:07.967Z,6.35
2023-11-23T08:28:10.513Z,6.63
2023-11-23T08:38:15.862Z,6.03
2023-11-23T08:48:17.823Z,6.60
2023-11-23T08:58:19.789Z,6.60
2023-11-23T09:08:21.888Z,5.78
2023-11-23T09:18:24.277Z,5.78
2023-11-23T09:28:26.382Z,6.43
2023-11-23T09:38:28.478Z,5.75
2023-11-23T09:48:35.533Z,5.47
2023-11-23T09:58:37.302Z,5.07
2023-11-23T10:08:39.214Z,5.72
2023-11-23T10:18:44.916Z,5.25
2023-11-23T10:28:48.503Z,5.30
2023-11-23T10:38:51.177Z,5.75
2023-11-23T10:48:54.661Z,5.53
2023-11-23T10:59:01.752Z,5.57
2023-11-23T11:09:15.697Z,5.63
2023-11-23T11:19:18.876Z,5.18
2023-11-23T11:29:22.596Z,5.20
2023-11-23T11:39:28.638Z,5.13
2023-11-23T11:49:31.653Z,5.50
2023-11-23T11:59:37.416Z,5.18
2023-11-23T12:09:44.212Z,4.93
2023-11-23T12:19:53.165Z,4.43
2023-11-23T12:29:55.304Z,5.45
2023-11-23T12:39:57.225Z,4.80
2023-11-23T12:49:59.350Z,4.90
2023-11-23T13:00:02.496Z,4.78
2023-11-23T13:10:07.129Z,5.32
2023-11-23T13:20:10.763Z,4.57
2023-11-23T13:30:12.895Z,4.60
2023-11-23T13:40:14.952Z,4.43
2023-11-23T13:50:18.286Z,4.75
2023-11-23T14:00:23.766Z,4.47
2023-11-23T14:10:27.148Z,4.43
2023-11-23T14:20:29.124Z,4.22
2023-11-23T14:30:30.913Z,4.20
2023-11-23T14:40:33.394Z,4.38
2023-11-23T14:50:35.394Z,4.60
2023-11-23T15:00:40.176Z,4.20
2023-11-23T15:10:42.242Z,4.88
2023-11-23T15:20:47.353Z,4.93
2023-11-23T15:30:50.008Z,4.78
2023-11-23T15:40:51.860Z,6.10
2023-11-23T15:50:53.593Z,7.05
2023-11-23T16:00:55.445Z,7.70
2023-11-23T16:10:57.297Z,7.32
2023-11-23T16:20:59.192Z,8.38
2023-11-23T16:31:01.248Z,7.80
2023-11-23T16:41:03.563Z,7.93
2023-11-23T16:51:06.244Z,7.75
2023-11-23T17:01:08.526Z,8.35
2023-11-23T17:11:10.736Z,9.80
2023-11-23T17:21:12.975Z,9.75
2023-11-23T17:31:15.909Z,10.13
2023-11-23T17:41:17.846Z,10.57
2023-11-23T17:51:20.039Z,11.00
2023-11-23T18:01:22.884Z,11.80
2023-11-23T18:11:24.782Z,12.77
2023-11-23T18:21:26.583Z,12.65
2023-11-23T18:31:28.482Z,12.40
2023-11-23T18:41:30.385Z,11.00
2023-11-23T18:51:32.593Z,11.25
2023-11-23T19:01:34.802Z,11.10
2023-11-23T19:11:38.553Z,10.93
2023-11-23T19:21:40.866Z,11.20
2023-11-23T19:31:50.640Z,10.35
2023-11-23T19:41:53.922Z,9.98
2023-11-23T19:52:00.780Z,9.55
2023-11-23T20:02:02.756Z,10.98
2023-11-23T20:12:05.484Z,9.85
2023-11-23T20:22:07.481Z,9.68
2023-11-23T20:32:09.321Z,10.00
2023-11-23T20:42:12.559Z,10.38
2023-11-23T20:52:15.267Z,10.68
2023-11-23T21:02:18.032Z,10.65
2023-11-23T21:12:27.198Z,10.77
2023-11-23T21:22:30.719Z,10.57
2023-11-23T21:32:33.480Z,11.27
2023-11-23T21:42:36.153Z,12.20
2023-11-23T21:52:40.657Z,11.60
2023-11-23T22:02:42.962Z,11.07
2023-11-23T22:12:45.138Z,11.38
2023-11-23T22:22:47.823Z,11.05
2023-11-23T22:32:55.415Z,12.15
2023-11-23T22:42:58.002Z,11.80
2023-11-23T22:52:59.981Z,11.88
2023-11-23T23:03:01.828Z,12.60
2023-11-23T23:13:07.068Z,13.30
2023-11-23T23:23:11.159Z,12.75
2023-11-23T23:33:13.076Z,12.45
2023-11-23T23:43:14.874Z,12.68
2023-11-23T23:53:17.418Z,12.20
